sensor_id;sensor_type;location;lat;lon;timestamp;P1;durP1;ratioP1;P2;durP2;ratioP2
24635;SDS011;12772;49.794;10.024;2023-02-18T00:01:48;5.60;;;5.10;;
24635;SDS011;12772;49.794;10.024;2023-02-18T00:05:51;5.05;;;4.65;;
24635;SDS011;12772;49.794;10.024;2023-02-18T00:09:53;6.07;;;5.57;;
24635;SDS011;12772;49.794;10.024;2023-02-18T00:13:56;5.68;;;5.22;;
24635;SDS011;12772;49.794;10.024;2023-02-18T00:17:59;5.32;;;4.93;;
24635;SDS011;12772;49.794;10.024;2023-02-18T00:22:01;5.45;;;5.03;;
24635;SDS011;12772;49.794;10.024;2023-02-18T00:26:05;5.68;;;5.28;;
24635;SDS011;12772;49.794;10.024;2023-02-18T00:30:14;5.25;;;4.85;;
24635;SDS011;12772;49.794;10.024;2023-02-18T00:34:17;5.85;;;5.45;;
24635;SDS011;12772;49.794;10.024;2023-02-18T00:38:19;6.53;;;5.88;;
24635;SDS011;12772;49.794;10.024;2023-02-18T00:42:21;6.20;;;5.70;;
24635;SDS011;12772;49.794;10.024;2023-02-18T00:46:23;6.20;;;5.70;;
24635;SDS011;12772;49.794;10.024;2023-02-18T00:50:25;5.63;;;5.13;;
24635;SDS011;12772;49.794;10.024;2023-02-18T00:54:27;6.43;;;5.82;;
24635;SDS011;12772;49.794;10.024;2023-02-18T00:58:29;5.13;;;4.72;;
24635;SDS011;12772;49.794;10.024;2023-02-18T01:02:31;5.13;;;4.72;;
24635;SDS011;12772;49.794;10.024;2023-02-18T01:06:34;5.80;;;5.40;;
24635;SDS011;12772;49.794;10.024;2023-02-18T01:10:38;4.85;;;4.55;;
24635;SDS011;12772;49.794;10.024;2023-02-18T01:14:42;6.40;;;5.90;;
24635;SDS011;12772;49.794;10.024;2023-02-18T01:18:45;5.47;;;4.97;;
24635;SDS011;12772;49.794;10.024;2023-02-18T01:22:47;6.18;;;5.68;;
24635;SDS011;12772;49.794;10.024;2023-02-18T01:26:49;5.55;;;5.15;;
24635;SDS011;12772;49.794;10.024;2023-02-18T01:30:51;6.13;;;5.63;;
24635;SDS011;12772;49.794;10.024;2023-02-18T01:34:54;5.88;;;5.38;;
24635;SDS011;12772;49.794;10.024;2023-02-18T01:38:56;5.00;;;4.60;;
24635;SDS011;12772;49.794;10.024;2023-02-18T01:42:58;6.25;;;5.63;;
24635;SDS011;12772;49.794;10.024;2023-02-18T01:47:00;3.83;;;3.60;;
24635;SDS011;12772;49.794;10.024;2023-02-18T01:55:15;4.35;;;3.97;;
24635;SDS011;12772;49.794;10.024;2023-02-18T01:59:24;4.43;;;4.03;;
24635;SDS011;12772;49.794;10.024;2023-02-18T02:03:30;4.00;;;3.70;;
24635;SDS011;12772;49.794;10.024;2023-02-18T02:07:32;3.88;;;3.63;;
24635;SDS011;12772;49.794;10.024;2023-02-18T02:11:48;3.70;;;3.40;;
24635;SDS011;12772;49.794;10.024;2023-02-18T02:16:05;3.30;;;3.10;;
24635;SDS011;12772;49.794;10.024;2023-02-18T02:20:24;3.55;;;3.35;;
24635;SDS011;12772;49.794;10.024;2023-02-18T02:24:45;3.20;;;3.00;;
24635;SDS011;12772;49.794;10.024;2023-02-18T02:33:37;3.53;;;3.22;;
24635;SDS011;12772;49.794;10.024;2023-02-18T02:37:53;2.78;;;2.60;;
24635;SDS011;12772;49.794;10.024;2023-02-18T02:46:10;4.00;;;3.70;;
24635;SDS011;12772;49.794;10.024;2023-02-18T02:50:37;3.17;;;2.97;;
24635;SDS011;12772;49.794;10.024;2023-02-18T02:54:45;3.45;;;3.25;;
24635;SDS011;12772;49.794;10.024;2023-02-18T02:58:54;3.70;;;3.50;;
24635;SDS011;12772;49.794;10.024;2023-02-18T03:03:05;3.40;;;3.20;;
24635;SDS011;12772;49.794;10.024;2023-02-18T03:12:06;2.58;;;2.47;;
24635;SDS011;12772;49.794;10.024;2023-02-18T03:16:27;3.35;;;3.15;;
24635;SDS011;12772;49.794;10.024;2023-02-18T03:20:35;3.10;;;2.90;;
24635;SDS011;12772;49.794;10.024;2023-02-18T03:24:42;2.90;;;2.50;;
24635;SDS011;12772;49.794;10.024;2023-02-18T03:28:47;2.95;;;2.75;;
24635;SDS011;12772;49.794;10.024;2023-02-18T03:32:52;2.97;;;2.78;;
24635;SDS011;12772;49.794;10.024;2023-02-18T03:37:00;3.47;;;3.03;;
24635;SDS011;12772;49.794;10.024;2023-02-18T03:41:03;3.33;;;3.03;;
24635;SDS011;12772;49.794;10.024;2023-02-18T03:45:05;2.97;;;2.78;;
24635;SDS011;12772;49.794;10.024;2023-02-18T03:49:08;2.75;;;2.55;;
24635;SDS011;12772;49.794;10.024;2023-02-18T03:53:11;3.47;;;3.17;;
24635;SDS011;12772;49.794;10.024;2023-02-18T03:57:13;2.75;;;2.63;;
24635;SDS011;12772;49.794;10.024;2023-02-18T04:01:15;2.90;;;2.70;;
24635;SDS011;12772;49.794;10.024;2023-02-18T04:05:17;3.20;;;3.00;;
24635;SDS011;12772;49.794;10.024;2023-02-18T04:09:19;3.63;;;3.20;;
24635;SDS011;12772;49.794;10.024;2023-02-18T04:13:21;3.08;;;2.78;;
24635;SDS011;12772;49.794;10.024;2023-02-18T04:17:24;2.63;;;2.47;;
24635;SDS011;12772;49.794;10.024;2023-02-18T04:21:26;2.60;;;2.50;;
24635;SDS011;12772;49.794;10.024;2023-02-18T04:25:28;3.03;;;2.83;;
24635;SDS011;12772;49.794;10.024;2023-02-18T04:29:30;3.95;;;3.58;;
24635;SDS011;12772;49.794;10.024;2023-02-18T04:33:32;2.63;;;2.47;;
24635;SDS011;12772;49.794;10.024;2023-02-18T04:37:34;2.50;;;2.35;;
24635;SDS011;12772;49.794;10.024;2023-02-18T04:41:36;2.63;;;2.50;;
24635;SDS011;12772;49.794;10.024;2023-02-18T04:45:38;2.72;;;2.53;;
24635;SDS011;12772;49.794;10.024;2023-02-18T04:49:40;2.72;;;2.63;;
24635;SDS011;12772;49.794;10.024;2023-02-18T04:53:42;3.17;;;2.97;;
24635;SDS011;12772;49.794;10.024;2023-02-18T04:57:45;2.97;;;2.78;;
24635;SDS011;12772;49.794;10.024;2023-02-18T05:01:47;2.70;;;2.50;;
24635;SDS011;12772;49.794;10.024;2023-02-18T05:05:49;4.00;;;3.03;;
24635;SDS011;12772;49.794;10.024;2023-02-18T05:09:51;3.67;;;3.38;;
24635;SDS011;12772;49.794;10.024;2023-02-18T05:13:53;3.10;;;2.90;;
24635;SDS011;12772;49.794;10.024;2023-02-18T05:17:55;4.10;;;3.80;;
24635;SDS011;12772;49.794;10.024;2023-02-18T05:21:57;3.33;;;3.13;;
24635;SDS011;12772;49.794;10.024;2023-02-18T05:25:59;3.92;;;3.60;;
24635;SDS011;12772;49.794;10.024;2023-02-18T05:30:01;4.53;;;4.15;;
24635;SDS011;12772;49.794;10.024;2023-02-18T05:34:04;3.80;;;3.50;;
24635;SDS011;12772;49.794;10.024;2023-02-18T05:38:06;3.63;;;3.33;;
24635;SDS011;12772;49.794;10.024;2023-02-18T05:42:09;3.17;;;2.97;;
24635;SDS011;12772;49.794;10.024;2023-02-18T05:46:11;3.58;;;3.28;;
24635;SDS011;12772;49.794;10.024;2023-02-18T05:50:13;3.20;;;2.88;;
24635;SDS011;12772;49.794;10.024;2023-02-18T05:54:15;3.47;;;3.17;;
24635;SDS011;12772;49.794;10.024;2023-02-18T05:58:17;3.20;;;3.00;;
24635;SDS011;12772;49.794;10.024;2023-02-18T06:02:19;3.38;;;3.17;;
24635;SDS011;12772;49.794;10.024;2023-02-18T06:06:21;3.10;;;2.90;;
24635;SDS011;12772;49.794;10.024;2023-02-18T06:10:24;3.03;;;2.72;;
24635;SDS011;12772;49.794;10.024;2023-02-18T06:14:26;2.88;;;2.67;;
24635;SDS011;12772;49.794;10.024;2023-02-18T06:18:28;2.95;;;2.75;;
24635;SDS011;12772;49.794;10.024;2023-02-18T06:22:30;3.85;;;3.55;;
24635;SDS011;12772;49.794;10.024;2023-02-18T06:26:32;4.45;;;4.13;;
24635;SDS011;12772;49.794;10.024;2023-02-18T06:30:34;4.90;;;4.47;;
24635;SDS011;12772;49.794;10.024;2023-02-18T06:34:36;4.88;;;4.28;;
24635;SDS011;12772;49.794;10.024;2023-02-18T06:38:39;4.97;;;4.38;;
24635;SDS011;12772;49.794;10.024;2023-02-18T06:42:42;4.82;;;4.53;;
24635;SDS011;12772;49.794;10.024;2023-02-18T06:46:44;7.28;;;5.07;;
24635;SDS011;12772;49.794;10.024;2023-02-18T06:50:47;6.40;;;5.80;;
24635;SDS011;12772;49.794;10.024;2023-02-18T06:54:49;5.82;;;5.32;;
24635;SDS011;12772;49.794;10.024;2023-02-18T06:58:51;6.28;;;5.78;;
24635;SDS011;12772;49.794;10.024;2023-02-18T07:02:53;5.38;;;4.95;;
24635;SDS011;12772;49.794;10.024;2023-02-18T07:06:55;6.45;;;5.85;;
24635;SDS011;12772;49.794;10.024;2023-02-18T07:10:57;6.65;;;6.03;;
24635;SDS011;12772;49.794;10.024;2023-02-18T07:15:00;6.85;;;6.20;;
24635;SDS011;12772;49.794;10.024;2023-02-18T07:19:02;7.32;;;6.63;;
24635;SDS011;12772;49.794;10.024;2023-02-18T07:23:04;6.80;;;6.30;;
24635;SDS011;12772;49.794;10.024;2023-02-18T07:27:06;7.80;;;7.07;;
24635;SDS011;12772;49.794;10.024;2023-02-18T07:31:09;7.70;;;7.05;;
24635;SDS011;12772;49.794;10.024;2023-02-18T07:35:12;7.97;;;7.35;;
24635;SDS011;12772;49.794;10.024;2023-02-18T07:39:15;7.07;;;6.47;;
24635;SDS011;12772;49.794;10.024;2023-02-18T07:43:20;7.53;;;6.93;;
24635;SDS011;12772;49.794;10.024;2023-02-18T07:47:22;7.72;;;7.03;;
24635;SDS011;12772;49.794;10.024;2023-02-18T07:51:24;7.50;;;6.85;;
24635;SDS011;12772;49.794;10.024;2023-02-18T07:55:26;7.88;;;7.18;;
24635;SDS011;12772;49.794;10.024;2023-02-18T07:59:48;7.07;;;6.47;;
24635;SDS011;12772;49.794;10.024;2023-02-18T08:03:50;7.70;;;6.95;;
24635;SDS011;12772;49.794;10.024;2023-02-18T08:07:52;8.07;;;7.38;;
24635;SDS011;12772;49.794;10.024;2023-02-18T08:11:54;7.82;;;6.88;;
24635;SDS011;12772;49.794;10.024;2023-02-18T08:15:57;8.23;;;7.53;;
24635;SDS011;12772;49.794;10.024;2023-02-18T08:19:59;7.88;;;7.22;;
24635;SDS011;12772;49.794;10.024;2023-02-18T08:24:01;8.20;;;7.43;;
24635;SDS011;12772;49.794;10.024;2023-02-18T08:28:04;11.07;;;8.52;;
24635;SDS011;12772;49.794;10.024;2023-02-18T08:32:06;8.68;;;7.32;;
24635;SDS011;12772;49.794;10.024;2023-02-18T08:36:08;8.10;;;7.45;;
24635;SDS011;12772;49.794;10.024;2023-02-18T08:40:11;7.18;;;6.57;;
24635;SDS011;12772;49.794;10.024;2023-02-18T08:44:13;7.47;;;6.70;;
24635;SDS011;12772;49.794;10.024;2023-02-18T08:48:15;7.40;;;6.85;;
24635;SDS011;12772;49.794;10.024;2023-02-18T08:52:17;7.47;;;6.78;;
24635;SDS011;12772;49.794;10.024;2023-02-18T08:56:20;7.25;;;6.57;;
24635;SDS011;12772;49.794;10.024;2023-02-18T09:00:22;8.10;;;7.45;;
24635;SDS011;12772;49.794;10.024;2023-02-18T09:04:24;8.52;;;7.82;;
24635;SDS011;12772;49.794;10.024;2023-02-18T09:08:27;9.65;;;8.85;;
24635;SDS011;12772;49.794;10.024;2023-02-18T09:12:29;9.70;;;8.80;;
24635;SDS011;12772;49.794;10.024;2023-02-18T09:16:31;7.90;;;7.20;;
24635;SDS011;12772;49.794;10.024;2023-02-18T09:20:38;8.38;;;7.65;;
24635;SDS011;12772;49.794;10.024;2023-02-18T09:24:40;7.93;;;7.22;;
24635;SDS011;12772;49.794;10.024;2023-02-18T09:28:43;7.50;;;6.80;;
24635;SDS011;12772;49.794;10.024;2023-02-18T09:32:45;7.68;;;6.97;;
24635;SDS011;12772;49.794;10.024;2023-02-18T09:36:47;7.22;;;6.60;;
24635;SDS011;12772;49.794;10.024;2023-02-18T09:40:49;8.23;;;7.43;;
24635;SDS011;12772;49.794;10.024;2023-02-18T09:44:54;7.97;;;7.20;;
24635;SDS011;12772;49.794;10.024;2023-02-18T09:49:02;8.05;;;7.03;;
24635;SDS011;12772;49.794;10.024;2023-02-18T09:53:09;7.78;;;7.07;;
24635;SDS011;12772;49.794;10.024;2023-02-18T10:01:38;7.28;;;6.57;;
24635;SDS011;12772;49.794;10.024;2023-02-18T10:06:02;6.55;;;6.00;;
24635;SDS011;12772;49.794;10.024;2023-02-18T10:10:30;8.23;;;5.25;;
24635;SDS011;12772;49.794;10.024;2023-02-18T10:14:38;6.90;;;6.20;;
24635;SDS011;12772;49.794;10.024;2023-02-18T10:18:41;5.88;;;5.28;;
24635;SDS011;12772;49.794;10.024;2023-02-18T10:22:49;6.10;;;5.60;;
24635;SDS011;12772;49.794;10.024;2023-02-18T10:26:53;6.22;;;5.63;;
24635;SDS011;12772;49.794;10.024;2023-02-18T10:30:57;5.70;;;5.25;;
24635;SDS011;12772;49.794;10.024;2023-02-18T10:44:07;7.63;;;6.57;;
24635;SDS011;12772;49.794;10.024;2023-02-18T10:48:27;6.22;;;5.65;;
24635;SDS011;12772;49.794;10.024;2023-02-18T10:52:34;8.68;;;5.95;;
24635;SDS011;12772;49.794;10.024;2023-02-18T10:56:46;6.13;;;5.40;;
24635;SDS011;12772;49.794;10.024;2023-02-18T11:00:49;6.47;;;5.88;;
24635;SDS011;12772;49.794;10.024;2023-02-18T11:04:51;6.30;;;5.70;;
24635;SDS011;12772;49.794;10.024;2023-02-18T11:08:53;6.85;;;6.25;;
24635;SDS011;12772;49.794;10.024;2023-02-18T11:13:07;9.30;;;6.47;;
24635;SDS011;12772;49.794;10.024;2023-02-18T11:17:30;6.60;;;5.95;;
24635;SDS011;12772;49.794;10.024;2023-02-18T11:21:34;6.47;;;5.88;;
24635;SDS011;12772;49.794;10.024;2023-02-18T11:25:39;7.10;;;6.40;;
24635;SDS011;12772;49.794;10.024;2023-02-18T11:29:42;6.43;;;5.93;;
24635;SDS011;12772;49.794;10.024;2023-02-18T11:33:49;6.25;;;5.68;;
24635;SDS011;12772;49.794;10.024;2023-02-18T11:38:01;7.05;;;6.45;;
24635;SDS011;12772;49.794;10.024;2023-02-18T11:42:05;6.28;;;5.68;;
24635;SDS011;12772;49.794;10.024;2023-02-18T11:46:11;8.43;;;6.20;;
24635;SDS011;12772;49.794;10.024;2023-02-18T11:50:21;6.57;;;5.97;;
24635;SDS011;12772;49.794;10.024;2023-02-18T11:58:44;5.63;;;5.20;;
24635;SDS011;12772;49.794;10.024;2023-02-18T12:02:49;6.00;;;5.50;;
24635;SDS011;12772;49.794;10.024;2023-02-18T12:11:14;5.78;;;5.18;;
24635;SDS011;12772;49.794;10.024;2023-02-18T12:15:31;4.88;;;4.47;;
24635;SDS011;12772;49.794;10.024;2023-02-18T12:33:04;4.38;;;4.07;;
24635;SDS011;12772;49.794;10.024;2023-02-18T12:41:52;4.13;;;3.78;;
24635;SDS011;12772;49.794;10.024;2023-02-18T13:12:27;3.90;;;3.50;;
24635;SDS011;12772;49.794;10.024;2023-02-18T13:16:38;3.78;;;3.42;;
24635;SDS011;12772;49.794;10.024;2023-02-18T13:20:45;3.83;;;3.53;;
24635;SDS011;12772;49.794;10.024;2023-02-18T13:24:53;4.28;;;3.55;;
24635;SDS011;12772;49.794;10.024;2023-02-18T13:37:38;3.63;;;3.33;;
24635;SDS011;12772;49.794;10.024;2023-02-18T13:46:22;3.45;;;3.15;;
24635;SDS011;12772;49.794;10.024;2023-02-18T13:50:29;4.13;;;3.20;;
24635;SDS011;12772;49.794;10.024;2023-02-18T14:02:59;3.40;;;3.20;;
24635;SDS011;12772;49.794;10.024;2023-02-18T14:11:39;11.30;;;7.07;;
24635;SDS011;12772;49.794;10.024;2023-02-18T14:16:05;6.10;;;4.40;;
24635;SDS011;12772;49.794;10.024;2023-02-18T14:24:10;3.42;;;3.20;;
24635;SDS011;12772;49.794;10.024;2023-02-18T14:32:38;4.65;;;4.25;;
24635;SDS011;12772;49.794;10.024;2023-02-18T14:36:54;3.97;;;3.67;;
24635;SDS011;12772;49.794;10.024;2023-02-18T14:50:22;4.32;;;3.92;;
24635;SDS011;12772;49.794;10.024;2023-02-18T14:54:25;5.30;;;3.80;;
24635;SDS011;12772;49.794;10.024;2023-02-18T15:02:35;3.75;;;3.45;;
24635;SDS011;12772;49.794;10.024;2023-02-18T15:06:38;4.75;;;4.35;;
24635;SDS011;12772;49.794;10.024;2023-02-18T15:10:45;4.68;;;4.25;;
24635;SDS011;12772;49.794;10.024;2023-02-18T15:15:00;4.55;;;4.20;;
24635;SDS011;12772;49.794;10.024;2023-02-18T15:19:06;6.20;;;4.20;;
24635;SDS011;12772;49.794;10.024;2023-02-18T15:23:16;4.05;;;3.70;;
24635;SDS011;12772;49.794;10.024;2023-02-18T15:31:26;5.57;;;4.32;;
24635;SDS011;12772;49.794;10.024;2023-02-18T15:35:35;4.90;;;4.45;;
24635;SDS011;12772;49.794;10.024;2023-02-18T15:39:42;4.70;;;4.32;;
24635;SDS011;12772;49.794;10.024;2023-02-18T15:43:57;4.85;;;3.97;;
24635;SDS011;12772;49.794;10.024;2023-02-18T15:48:03;4.03;;;3.63;;
24635;SDS011;12772;49.794;10.024;2023-02-18T15:52:06;4.30;;;4.00;;
24635;SDS011;12772;49.794;10.024;2023-02-18T15:56:09;4.70;;;3.92;;
24635;SDS011;12772;49.794;10.024;2023-02-18T16:00:19;7.30;;;6.38;;
24635;SDS011;12772;49.794;10.024;2023-02-18T16:04:28;5.55;;;5.13;;
24635;SDS011;12772;49.794;10.024;2023-02-18T16:08:33;4.75;;;4.35;;
24635;SDS011;12772;49.794;10.024;2023-02-18T16:12:36;4.75;;;4.43;;
24635;SDS011;12772;49.794;10.024;2023-02-18T16:16:40;5.07;;;4.57;;
24635;SDS011;12772;49.794;10.024;2023-02-18T16:20:42;4.82;;;4.40;;
24635;SDS011;12772;49.794;10.024;2023-02-18T16:29:23;8.30;;;6.03;;
24635;SDS011;12772;49.794;10.024;2023-02-18T16:33:44;7.68;;;6.88;;
24635;SDS011;12772;49.794;10.024;2023-02-18T16:37:46;5.90;;;5.30;;
24635;SDS011;12772;49.794;10.024;2023-02-18T16:41:49;4.78;;;4.40;;
24635;SDS011;12772;49.794;10.024;2023-02-18T16:45:52;4.40;;;4.00;;
24635;SDS011;12772;49.794;10.024;2023-02-18T16:49:57;4.45;;;4.05;;
24635;SDS011;12772;49.794;10.024;2023-02-18T16:53:59;4.93;;;4.07;;
24635;SDS011;12772;49.794;10.024;2023-02-18T16:58:01;4.78;;;4.28;;
24635;SDS011;12772;49.794;10.024;2023-02-18T17:02:03;4.43;;;4.00;;
24635;SDS011;12772;49.794;10.024;2023-02-18T17:06:13;5.47;;;4.20;;
24635;SDS011;12772;49.794;10.024;2023-02-18T17:10:16;4.75;;;4.25;;
24635;SDS011;12772;49.794;10.024;2023-02-18T17:14:19;4.68;;;3.60;;
24635;SDS011;12772;49.794;10.024;2023-02-18T17:18:23;4.38;;;4.07;;
24635;SDS011;12772;49.794;10.024;2023-02-18T17:22:26;5.78;;;5.18;;
24635;SDS011;12772;49.794;10.024;2023-02-18T17:26:29;6.15;;;4.85;;
24635;SDS011;12772;49.794;10.024;2023-02-18T17:30:34;7.60;;;5.15;;
24635;SDS011;12772;49.794;10.024;2023-02-18T17:34:38;5.35;;;4.85;;
24635;SDS011;12772;49.794;10.024;2023-02-18T17:38:40;4.75;;;4.25;;
24635;SDS011;12772;49.794;10.024;2023-02-18T17:42:42;4.88;;;4.40;;
24635;SDS011;12772;49.794;10.024;2023-02-18T17:46:44;4.82;;;4.35;;
24635;SDS011;12772;49.794;10.024;2023-02-18T17:50:49;4.43;;;4.03;;
24635;SDS011;12772;49.794;10.024;2023-02-18T17:54:51;4.45;;;4.05;;
24635;SDS011;12772;49.794;10.024;2023-02-18T17:58:53;4.90;;;3.83;;
24635;SDS011;12772;49.794;10.024;2023-02-18T18:02:55;6.38;;;4.25;;
24635;SDS011;12772;49.794;10.024;2023-02-18T18:06:58;5.10;;;3.90;;
24635;SDS011;12772;49.794;10.024;2023-02-18T18:11:00;4.55;;;3.80;;
24635;SDS011;12772;49.794;10.024;2023-02-18T18:19:26;8.82;;;4.32;;
24635;SDS011;12772;49.794;10.024;2023-02-18T18:23:29;4.32;;;3.92;;
24635;SDS011;12772;49.794;10.024;2023-02-18T18:27:32;4.68;;;4.07;;
24635;SDS011;12772;49.794;10.024;2023-02-18T18:31:34;5.68;;;4.57;;
24635;SDS011;12772;49.794;10.024;2023-02-18T18:35:36;4.53;;;4.13;;
24635;SDS011;12772;49.794;10.024;2023-02-18T18:39:38;6.70;;;6.00;;
24635;SDS011;12772;49.794;10.024;2023-02-18T18:43:40;5.80;;;5.20;;
24635;SDS011;12772;49.794;10.024;2023-02-18T18:47:43;7.20;;;6.43;;
24635;SDS011;12772;49.794;10.024;2023-02-18T18:51:46;7.90;;;7.10;;
24635;SDS011;12772;49.794;10.024;2023-02-18T18:55:48;7.25;;;5.75;;
24635;SDS011;12772;49.794;10.024;2023-02-18T18:59:52;6.95;;;6.03;;
24635;SDS011;12772;49.794;10.024;2023-02-18T19:03:54;6.22;;;5.65;;
24635;SDS011;12772;49.794;10.024;2023-02-18T19:07:56;5.82;;;5.03;;
24635;SDS011;12772;49.794;10.024;2023-02-18T19:11:59;5.68;;;5.18;;
24635;SDS011;12772;49.794;10.024;2023-02-18T19:16:02;5.00;;;4.60;;
24635;SDS011;12772;49.794;10.024;2023-02-18T19:20:20;4.85;;;4.47;;
24635;SDS011;12772;49.794;10.024;2023-02-18T19:24:24;4.70;;;4.30;;
24635;SDS011;12772;49.794;10.024;2023-02-18T19:28:26;5.85;;;4.53;;
24635;SDS011;12772;49.794;10.024;2023-02-18T19:32:28;4.90;;;4.50;;
24635;SDS011;12772;49.794;10.024;2023-02-18T19:36:30;5.15;;;4.72;;
24635;SDS011;12772;49.794;10.024;2023-02-18T19:40:32;5.10;;;4.63;;
24635;SDS011;12772;49.794;10.024;2023-02-18T19:44:34;5.63;;;5.15;;
24635;SDS011;12772;49.794;10.024;2023-02-18T19:48:36;5.25;;;4.72;;
24635;SDS011;12772;49.794;10.024;2023-02-18T19:52:39;5.40;;;4.82;;
24635;SDS011;12772;49.794;10.024;2023-02-18T19:56:41;5.07;;;4.32;;
24635;SDS011;12772;49.794;10.024;2023-02-18T20:00:43;4.85;;;4.35;;
24635;SDS011;12772;49.794;10.024;2023-02-18T20:04:45;4.63;;;4.22;;
24635;SDS011;12772;49.794;10.024;2023-02-18T20:08:47;4.97;;;4.47;;
24635;SDS011;12772;49.794;10.024;2023-02-18T20:12:50;4.43;;;4.03;;
24635;SDS011;12772;49.794;10.024;2023-02-18T20:16:53;4.43;;;4.03;;
24635;SDS011;12772;49.794;10.024;2023-02-18T20:20:57;4.30;;;4.00;;
24635;SDS011;12772;49.794;10.024;2023-02-18T20:24:59;6.57;;;4.10;;
24635;SDS011;12772;49.794;10.024;2023-02-18T20:29:01;4.57;;;3.97;;
24635;SDS011;12772;49.794;10.024;2023-02-18T20:33:03;3.97;;;3.58;;
24635;SDS011;12772;49.794;10.024;2023-02-18T20:37:05;4.32;;;3.92;;
24635;SDS011;12772;49.794;10.024;2023-02-18T20:41:08;4.22;;;3.83;;
24635;SDS011;12772;49.794;10.024;2023-02-18T20:45:13;3.90;;;3.60;;
24635;SDS011;12772;49.794;10.024;2023-02-18T20:49:16;4.32;;;3.85;;
24635;SDS011;12772;49.794;10.024;2023-02-18T20:53:20;4.35;;;3.97;;
24635;SDS011;12772;49.794;10.024;2023-02-18T20:57:22;5.53;;;4.38;;
24635;SDS011;12772;49.794;10.024;2023-02-18T21:01:24;4.78;;;4.30;;
24635;SDS011;12772;49.794;10.024;2023-02-18T21:05:26;5.00;;;4.10;;
24635;SDS011;12772;49.794;10.024;2023-02-18T21:09:28;4.28;;;3.97;;
24635;SDS011;12772;49.794;10.024;2023-02-18T21:13:32;4.43;;;4.03;;
24635;SDS011;12772;49.794;10.024;2023-02-18T21:17:34;3.75;;;3.45;;
24635;SDS011;12772;49.794;10.024;2023-02-18T21:21:36;4.22;;;3.83;;
24635;SDS011;12772;49.794;10.024;2023-02-18T21:25:38;4.18;;;3.88;;
24635;SDS011;12772;49.794;10.024;2023-02-18T21:29:40;4.82;;;4.30;;
24635;SDS011;12772;49.794;10.024;2023-02-18T21:33:42;4.93;;;4.53;;
24635;SDS011;12772;49.794;10.024;2023-02-18T21:37:45;4.05;;;3.75;;
24635;SDS011;12772;49.794;10.024;2023-02-18T21:41:47;3.72;;;3.42;;
24635;SDS011;12772;49.794;10.024;2023-02-18T21:45:49;4.22;;;3.92;;
24635;SDS011;12772;49.794;10.024;2023-02-18T21:49:51;4.88;;;4.38;;
24635;SDS011;12772;49.794;10.024;2023-02-18T21:53:53;4.35;;;4.00;;
24635;SDS011;12772;49.794;10.024;2023-02-18T21:57:55;4.32;;;3.92;;
24635;SDS011;12772;49.794;10.024;2023-02-18T22:01:57;4.20;;;3.80;;
24635;SDS011;12772;49.794;10.024;2023-02-18T22:06:00;4.13;;;3.83;;
24635;SDS011;12772;49.794;10.024;2023-02-18T22:10:02;4.32;;;3.78;;
24635;SDS011;12772;49.794;10.024;2023-02-18T22:14:04;4.43;;;4.03;;
24635;SDS011;12772;49.794;10.024;2023-02-18T22:18:06;4.13;;;3.83;;
24635;SDS011;12772;49.794;10.024;2023-02-18T22:22:08;4.45;;;4.05;;
24635;SDS011;12772;49.794;10.024;2023-02-18T22:26:10;4.97;;;4.57;;
24635;SDS011;12772;49.794;10.024;2023-02-18T22:30:12;4.70;;;4.30;;
24635;SDS011;12772;49.794;10.024;2023-02-18T22:34:15;4.13;;;3.83;;
24635;SDS011;12772;49.794;10.024;2023-02-18T22:38:17;4.65;;;4.25;;
24635;SDS011;12772;49.794;10.024;2023-02-18T22:42:19;4.93;;;4.47;;
24635;SDS011;12772;49.794;10.024;2023-02-18T22:46:21;4.28;;;3.90;;
24635;SDS011;12772;49.794;10.024;2023-02-18T22:50:23;4.57;;;4.10;;
24635;SDS011;12772;49.794;10.024;2023-02-18T22:54:25;4.95;;;4.45;;
24635;SDS011;12772;49.794;10.024;2023-02-18T22:58:27;4.38;;;4.07;;
24635;SDS011;12772;49.794;10.024;2023-02-18T23:02:29;4.65;;;4.15;;
24635;SDS011;12772;49.794;10.024;2023-02-18T23:06:31;4.70;;;4.30;;
24635;SDS011;12772;49.794;10.024;2023-02-18T23:10:34;4.75;;;4.30;;
24635;SDS011;12772;49.794;10.024;2023-02-18T23:14:36;4.93;;;4.53;;
24635;SDS011;12772;49.794;10.024;2023-02-18T23:18:38;4.28;;;3.88;;
24635;SDS011;12772;49.794;10.024;2023-02-18T23:22:40;4.90;;;4.50;;
24635;SDS011;12772;49.794;10.024;2023-02-18T23:26:42;4.65;;;4.25;;
24635;SDS011;12772;49.794;10.024;2023-02-18T23:30:44;4.70;;;4.30;;
24635;SDS011;12772;49.794;10.024;2023-02-18T23:34:47;4.57;;;4.10;;
24635;SDS011;12772;49.794;10.024;2023-02-18T23:38:52;3.80;;;3.50;;
24635;SDS011;12772;49.794;10.024;2023-02-18T23:42:55;4.13;;;3.83;;
24635;SDS011;12772;49.794;10.024;2023-02-18T23:46:57;4.05;;;3.75;;
24635;SDS011;12772;49.794;10.024;2023-02-18T23:51:00;4.50;;;3.90;;
24635;SDS011;12772;49.794;10.024;2023-02-18T23:55:03;3.88;;;3.58;;
24635;SDS011;12772;49.794;10.024;2023-02-18T23:59:05;5.00;;;4.50;;
